createdAt,value
2022-10-22T00:00:40.450Z,9.48
2022-10-22T00:03:08.824Z,9.60
2022-10-22T00:05:36.509Z,10.23
2022-10-22T00:08:03.579Z,9.57
2022-10-22T00:10:30.772Z,15.70
2022-10-22T00:12:57.822Z,14.00
2022-10-22T00:15:24.982Z,12.10
2022-10-22T00:17:52.090Z,10.57
2022-10-22T00:20:20.559Z,14.93
2022-10-22T00:22:47.573Z,16.85
2022-10-22T00:25:14.634Z,12.30
2022-10-22T00:27:42.221Z,14.05
2022-10-22T00:30:10.497Z,14.68
2022-10-22T00:32:37.627Z,17.70
2022-10-22T00:35:05.631Z,12.35
2022-10-22T00:37:34.178Z,13.93
2022-10-22T00:40:01.164Z,15.43
2022-10-22T00:42:31.899Z,13.88
2022-10-22T00:45:07.450Z,17.27
2022-10-22T00:47:37.592Z,14.38
2022-10-22T00:50:07.810Z,14.23
2022-10-22T00:52:36.615Z,13.30
2022-10-22T00:55:04.762Z,11.93
2022-10-22T00:57:32.111Z,11.95
2022-10-22T00:59:59.392Z,16.38
2022-10-22T01:02:27.004Z,15.27
2022-10-22T01:04:54.079Z,10.60
2022-10-22T01:07:24.117Z,14.48
2022-10-22T01:10:03.110Z,13.20
2022-10-22T01:12:42.121Z,12.73
2022-10-22T01:15:18.066Z,11.07
2022-10-22T01:17:52.614Z,9.45
2022-10-22T01:20:37.418Z,14.00
2022-10-22T01:23:17.698Z,15.55
2022-10-22T01:25:53.914Z,13.88
2022-10-22T01:28:32.172Z,12.65
2022-10-22T01:31:03.512Z,14.05
2022-10-22T01:33:31.323Z,12.57
2022-10-22T01:36:00.139Z,10.25
2022-10-22T01:38:27.433Z,11.48
2022-10-22T01:40:55.604Z,10.48
2022-10-22T01:43:22.583Z,8.65
2022-10-22T01:45:52.271Z,9.82
2022-10-22T01:48:37.714Z,10.73
2022-10-22T01:51:20.239Z,14.07
2022-10-22T01:53:53.765Z,10.88
2022-10-22T01:56:36.239Z,9.70
2022-10-22T01:59:08.228Z,12.32
2022-10-22T02:01:46.258Z,10.52
2022-10-22T02:04:20.562Z,11.77
2022-10-22T02:06:50.879Z,12.55
2022-10-22T02:09:19.978Z,41.22
2022-10-22T02:11:49.154Z,42.30
2022-10-22T02:14:18.345Z,26.08
2022-10-22T02:16:48.146Z,20.35
2022-10-22T02:19:23.458Z,15.15
2022-10-22T02:24:18.660Z,14.15
2022-10-22T02:26:51.222Z,12.88
2022-10-22T02:29:22.545Z,18.73
2022-10-22T02:31:51.598Z,15.60
2022-10-22T02:34:24.530Z,13.75
2022-10-22T02:36:52.189Z,14.50
2022-10-22T02:39:20.606Z,16.55
2022-10-22T02:41:48.273Z,12.65
2022-10-22T02:44:15.247Z,12.82
2022-10-22T02:46:43.489Z,18.95
2022-10-22T02:49:10.656Z,16.77
2022-10-22T02:51:39.032Z,18.10
2022-10-22T02:54:06.286Z,17.88
2022-10-22T02:56:33.850Z,14.02
2022-10-22T02:59:00.825Z,20.00
2022-10-22T03:01:27.919Z,15.95
2022-10-22T03:03:54.823Z,15.20
2022-10-22T03:06:21.962Z,11.38
2022-10-22T03:08:50.658Z,13.98
2022-10-22T03:11:17.635Z,11.48
2022-10-22T03:13:44.743Z,10.80
2022-10-22T03:16:11.698Z,12.65
2022-10-22T03:18:38.685Z,11.77
2022-10-22T03:21:11.176Z,11.98
2022-10-22T03:23:40.387Z,20.42
2022-10-22T03:26:09.662Z,10.65
2022-10-22T03:28:38.315Z,18.85
2022-10-22T03:31:05.736Z,15.20
2022-10-22T03:33:32.735Z,13.02
2022-10-22T03:36:00.646Z,15.88
2022-10-22T03:38:27.694Z,9.60
2022-10-22T03:40:54.739Z,18.00
2022-10-22T03:43:23.128Z,13.38
2022-10-22T03:45:50.197Z,13.13
2022-10-22T03:48:17.215Z,11.68
2022-10-22T03:50:44.156Z,13.82
2022-10-22T03:53:11.291Z,27.13
2022-10-22T03:55:38.550Z,22.80
2022-10-22T03:58:05.764Z,18.65
2022-10-22T04:00:34.888Z,34.53
2022-10-22T04:03:01.904Z,27.30
2022-10-22T04:05:28.887Z,23.08
2022-10-22T04:07:55.882Z,20.60
2022-10-22T04:10:22.987Z,21.35
2022-10-22T04:12:50.272Z,21.48
2022-10-22T04:15:17.825Z,19.95
2022-10-22T04:17:46.228Z,19.75
2022-10-22T04:20:13.225Z,25.25
2022-10-22T04:22:40.175Z,23.00
2022-10-22T04:25:07.577Z,25.88
2022-10-22T04:27:35.187Z,25.92
2022-10-22T04:30:02.594Z,30.10
2022-10-22T04:32:29.562Z,27.42
2022-10-22T04:34:57.897Z,40.78
2022-10-22T04:37:25.002Z,21.02
2022-10-22T04:39:51.990Z,27.60
2022-10-22T04:42:19.154Z,19.48
2022-10-22T04:44:46.635Z,19.88
2022-10-22T04:47:13.646Z,18.17
2022-10-22T04:49:40.820Z,20.38
2022-10-22T04:52:09.175Z,16.23
2022-10-22T04:54:36.325Z,16.60
2022-10-22T04:57:03.448Z,34.40
2022-10-22T04:59:30.473Z,22.73
2022-10-22T05:01:57.484Z,28.42
2022-10-22T05:04:24.605Z,16.98
2022-10-22T05:06:52.162Z,36.90
2022-10-22T05:09:21.132Z,15.50
2022-10-22T05:11:49.779Z,15.85
2022-10-22T05:14:19.542Z,28.05
2022-10-22T05:16:48.573Z,19.80
2022-10-22T05:19:19.793Z,19.10
2022-10-22T05:21:47.080Z,16.15
2022-10-22T05:24:14.796Z,15.00
2022-10-22T05:26:43.302Z,19.73
2022-10-22T05:29:10.326Z,16.80
2022-10-22T05:31:38.984Z,19.70
2022-10-22T05:34:05.982Z,16.55
2022-10-22T05:36:33.038Z,14.40
2022-10-22T05:39:00.374Z,16.17
2022-10-22T05:41:28.428Z,21.88
2022-10-22T05:43:57.695Z,30.05
2022-10-22T05:46:27.400Z,15.85
2022-10-22T05:48:56.361Z,15.93
2022-10-22T05:51:24.304Z,21.17
2022-10-22T05:53:52.590Z,12.43
2022-10-22T05:56:19.612Z,12.60
2022-10-22T05:58:46.878Z,15.82
2022-10-22T06:01:17.445Z,14.18
2022-10-22T06:03:44.880Z,13.07
2022-10-22T06:06:18.665Z,13.75
2022-10-22T06:08:46.855Z,12.70
2022-10-22T06:11:14.556Z,17.33
2022-10-22T06:13:41.686Z,15.35
2022-10-22T06:16:08.761Z,13.57
2022-10-22T06:18:37.174Z,37.92
2022-10-22T06:21:06.207Z,20.48
2022-10-22T06:23:33.502Z,15.88
2022-10-22T06:26:01.362Z,22.92
2022-10-22T06:28:29.200Z,35.15
2022-10-22T06:30:57.855Z,15.82
2022-10-22T06:33:24.836Z,53.45
2022-10-22T06:35:53.668Z,41.67
2022-10-22T06:38:21.017Z,16.55
2022-10-22T06:40:48.092Z,17.63
2022-10-22T06:43:15.404Z,38.75
2022-10-22T06:45:42.438Z,69.90
2022-10-22T06:48:09.660Z,21.77
2022-10-22T06:50:36.871Z,13.52
2022-10-22T06:53:05.908Z,14.82
2022-10-22T06:55:33.176Z,23.67
2022-10-22T06:58:00.211Z,113.43
2022-10-22T07:00:27.435Z,58.47
2022-10-22T07:02:57.782Z,87.47
2022-10-22T07:05:26.903Z,61.90
2022-10-22T07:07:53.865Z,46.63
2022-10-22T07:10:22.276Z,52.45
2022-10-22T07:12:49.934Z,39.30
2022-10-22T07:15:17.023Z,34.67
2022-10-22T07:17:44.005Z,28.98
2022-10-22T07:20:12.712Z,25.98
2022-10-22T07:22:40.078Z,28.48
2022-10-22T07:25:07.745Z,27.25
2022-10-22T07:27:36.435Z,36.45
2022-10-22T07:30:04.083Z,147.55
2022-10-22T07:32:31.143Z,110.97
2022-10-22T07:34:58.208Z,99.57
2022-10-22T07:37:25.153Z,55.22
2022-10-22T07:39:52.122Z,41.20
2022-10-22T07:42:19.316Z,42.30
2022-10-22T07:44:47.765Z,35.10
2022-10-22T07:47:14.722Z,29.20
2022-10-22T07:49:41.720Z,18.50
2022-10-22T07:52:08.727Z,25.95
2022-10-22T07:54:35.644Z,23.55
2022-10-22T07:57:02.608Z,23.65
2022-10-22T07:59:29.579Z,20.88
2022-10-22T08:01:57.926Z,38.20
2022-10-22T08:04:24.963Z,433.50
2022-10-22T08:06:51.925Z,520.67
2022-10-22T08:09:18.971Z,45.35
2022-10-22T08:11:46.343Z,30.95
2022-10-22T08:14:13.328Z,28.63
2022-10-22T08:16:40.310Z,24.85
2022-10-22T08:19:08.795Z,43.88
2022-10-22T08:21:35.798Z,38.63
2022-10-22T08:24:02.897Z,66.45
2022-10-22T08:26:29.905Z,82.75
2022-10-22T08:28:56.895Z,84.63
2022-10-22T08:31:23.978Z,304.48
2022-10-22T08:33:50.960Z,225.88
2022-10-22T08:36:19.327Z,53.75
2022-10-22T08:38:46.357Z,283.35
2022-10-22T08:41:15.877Z,54.45
2022-10-22T08:44:05.660Z,834.47
2022-10-22T08:46:54.432Z,63.58
2022-10-22T08:49:24.927Z,63.10
2022-10-22T08:51:53.653Z,25.50
2022-10-22T08:54:28.887Z,92.50
2022-10-22T08:59:40.931Z,30.77
2022-10-22T09:02:21.630Z,117.50
2022-10-22T09:04:55.316Z,13.43
2022-10-22T09:07:24.566Z,27.23
2022-10-22T09:09:53.986Z,13.25
2022-10-22T09:12:23.395Z,26.10
2022-10-22T09:14:50.809Z,24.20
2022-10-22T09:17:26.281Z,31.50
2022-10-22T09:20:02.958Z,33.25
2022-10-22T09:22:37.642Z,26.25
2022-10-22T09:25:17.905Z,24.05
2022-10-22T09:27:44.983Z,30.70
2022-10-22T09:30:17.050Z,38.17
2022-10-22T09:32:44.374Z,58.33
2022-10-22T09:35:12.044Z,53.22
2022-10-22T09:37:48.478Z,11.50
2022-10-22T09:40:16.266Z,13.95
2022-10-22T09:42:44.991Z,18.30
2022-10-22T09:45:24.391Z,34.65
2022-10-22T09:48:03.342Z,52.00
2022-10-22T09:50:41.126Z,52.97
2022-10-22T09:53:17.604Z,45.80
2022-10-22T09:55:49.653Z,25.50
2022-10-22T09:58:18.317Z,22.13
2022-10-22T10:00:47.722Z,37.80
2022-10-22T10:03:20.313Z,35.85
2022-10-22T10:05:49.411Z,18.90
2022-10-22T10:08:18.259Z,76.18
2022-10-22T10:10:48.731Z,13.05
2022-10-22T10:13:32.393Z,11.68
2022-10-22T10:16:07.059Z,20.92
2022-10-22T10:18:46.873Z,7.05
2022-10-22T10:21:23.423Z,5.28
2022-10-22T10:23:58.623Z,4.97
2022-10-22T10:26:32.035Z,11.75
2022-10-22T10:29:11.855Z,6.35
2022-10-22T10:31:47.614Z,7.10
2022-10-22T10:34:27.383Z,8.60
2022-10-22T10:37:02.195Z,7.45
2022-10-22T10:42:08.531Z,4.97
2022-10-22T10:47:23.707Z,5.45
2022-10-22T10:49:54.255Z,10.98
2022-10-22T10:52:31.990Z,11.35
2022-10-22T10:55:13.430Z,10.05
2022-10-22T10:57:47.054Z,5.93
2022-10-22T11:00:16.490Z,9.38
2022-10-22T11:03:09.397Z,12.00
2022-10-22T11:05:39.621Z,7.35
2022-10-22T11:08:14.321Z,11.48
2022-10-22T11:10:47.241Z,8.68
2022-10-22T11:13:22.187Z,5.38
2022-10-22T11:15:55.437Z,12.05
2022-10-22T11:18:28.931Z,15.48
2022-10-22T11:21:16.725Z,52.33
2022-10-22T11:23:48.306Z,25.77
2022-10-22T11:26:24.657Z,7.70
2022-10-22T11:28:53.787Z,10.57
2022-10-22T11:31:24.850Z,11.65
2022-10-22T11:34:04.650Z,11.43
2022-10-22T11:36:38.142Z,6.20
2022-10-22T11:39:05.493Z,9.82
2022-10-22T11:41:34.677Z,14.13
2022-10-22T11:44:19.565Z,7.10
2022-10-22T11:46:53.900Z,16.58
2022-10-22T11:49:26.733Z,21.77
2022-10-22T11:52:21.607Z,21.83
2022-10-22T11:54:48.962Z,21.85
2022-10-22T11:57:25.350Z,22.65
2022-10-22T11:59:56.341Z,47.95
2022-10-22T12:02:40.287Z,36.85
2022-10-22T12:05:35.307Z,9.60
2022-10-22T12:08:24.301Z,7.40
2022-10-22T12:11:03.974Z,29.45
2022-10-22T12:13:34.410Z,56.45
2022-10-22T12:16:04.402Z,28.92
2022-10-22T12:18:39.967Z,129.90
2022-10-22T12:21:09.842Z,74.95
2022-10-22T12:23:37.584Z,34.88
2022-10-22T12:26:05.631Z,88.47
2022-10-22T12:28:40.016Z,29.65
2022-10-22T12:31:14.914Z,38.83
2022-10-22T12:36:15.929Z,34.72
2022-10-22T12:38:47.217Z,47.58
2022-10-22T12:41:14.408Z,14.90
2022-10-22T12:43:42.771Z,8.50
2022-10-22T12:46:13.835Z,13.43
2022-10-22T12:48:44.189Z,13.85
2022-10-22T12:51:16.965Z,18.15
2022-10-22T12:53:46.660Z,12.75
2022-10-22T12:56:16.381Z,10.63
2022-10-22T12:58:49.210Z,13.93
2022-10-22T13:01:18.422Z,8.90
2022-10-22T13:03:49.877Z,8.23
2022-10-22T13:06:25.226Z,12.32
2022-10-22T13:09:13.256Z,12.68
2022-10-22T13:11:42.210Z,13.98
2022-10-22T13:14:21.553Z,15.30
2022-10-22T13:17:10.693Z,35.17
2022-10-22T13:19:47.042Z,14.90
2022-10-22T13:22:29.995Z,13.38
2022-10-22T13:24:59.769Z,36.03
2022-10-22T13:27:28.502Z,37.85
2022-10-22T13:30:01.172Z,42.50
2022-10-22T13:32:31.022Z,24.70
2022-10-22T13:35:00.326Z,31.15
2022-10-22T13:37:29.138Z,23.48
2022-10-22T13:39:56.078Z,35.45
2022-10-22T13:42:23.054Z,49.40
2022-10-22T13:44:49.978Z,45.05
2022-10-22T13:47:25.578Z,37.67
2022-10-22T13:52:35.938Z,25.48
2022-10-22T13:55:12.283Z,20.58
2022-10-22T13:57:39.253Z,8.02
2022-10-22T14:00:07.688Z,9.07
2022-10-22T14:02:41.111Z,10.60
2022-10-22T14:05:09.622Z,7.95
2022-10-22T14:07:37.235Z,30.13
2022-10-22T14:10:13.524Z,16.67
2022-10-22T14:12:40.502Z,20.08
2022-10-22T14:15:08.841Z,24.50
2022-10-22T14:17:35.845Z,29.48
2022-10-22T14:20:04.396Z,38.33
2022-10-22T14:22:31.507Z,58.83
2022-10-22T14:24:58.425Z,44.50
2022-10-22T14:27:25.380Z,629.53
2022-10-22T14:29:54.941Z,642.55
2022-10-22T14:32:24.209Z,394.88
2022-10-22T14:34:51.122Z,635.88
2022-10-22T14:37:20.762Z,497.20
2022-10-22T14:39:51.964Z,558.20
2022-10-22T14:42:19.887Z,493.63
2022-10-22T14:44:47.006Z,249.00
2022-10-22T14:47:14.030Z,199.35
2022-10-22T14:49:41.042Z,100.47
2022-10-22T14:52:10.584Z,194.15
2022-10-22T14:54:41.235Z,246.43
2022-10-22T14:57:08.885Z,256.45
2022-10-22T14:59:35.913Z,254.57
2022-10-22T15:02:03.068Z,222.32
2022-10-22T15:04:30.590Z,247.25
2022-10-22T15:06:59.175Z,211.50
2022-10-22T15:09:26.174Z,284.95
2022-10-22T15:11:54.511Z,173.57
2022-10-22T15:14:21.615Z,146.07
2022-10-22T15:16:48.558Z,91.85
2022-10-22T15:19:15.505Z,149.27
2022-10-22T15:24:09.329Z,38.67
2022-10-22T15:26:36.338Z,101.30
2022-10-22T15:29:05.182Z,63.58
2022-10-22T15:31:50.074Z,52.78
2022-10-22T15:34:23.401Z,19.42
2022-10-22T15:36:51.075Z,13.45
2022-10-22T15:39:18.459Z,12.70
2022-10-22T15:41:46.974Z,18.85
2022-10-22T15:44:17.761Z,37.88
2022-10-22T15:46:44.852Z,23.23
2022-10-22T15:49:11.969Z,18.40
2022-10-22T15:51:39.375Z,47.85
2022-10-22T15:54:10.210Z,14.98
2022-10-22T15:56:37.385Z,13.93
2022-10-22T15:59:04.707Z,20.42
2022-10-22T16:01:35.203Z,13.70
2022-10-22T16:04:02.889Z,12.27
2022-10-22T16:06:33.121Z,14.80
2022-10-22T16:09:02.015Z,16.50
2022-10-22T16:11:29.975Z,13.98
2022-10-22T16:13:58.450Z,16.85
2022-10-22T16:16:26.770Z,21.65
2022-10-22T16:18:55.131Z,18.02
2022-10-22T16:21:23.270Z,18.48
2022-10-22T16:23:50.696Z,16.98
2022-10-22T16:26:18.571Z,23.08
2022-10-22T16:28:47.390Z,102.72
2022-10-22T16:31:16.733Z,44.08
2022-10-22T16:33:46.462Z,15.20
2022-10-22T16:36:20.049Z,15.82
2022-10-22T16:38:47.832Z,168.45
2022-10-22T16:41:16.831Z,175.32
2022-10-22T16:43:45.102Z,83.80
2022-10-22T16:46:12.764Z,41.28
2022-10-22T16:48:42.073Z,16.60
2022-10-22T16:51:11.062Z,14.88
2022-10-22T16:53:39.645Z,28.10
2022-10-22T16:56:08.934Z,15.85
2022-10-22T16:58:35.914Z,15.85
2022-10-22T17:01:06.212Z,16.40
2022-10-22T17:03:33.192Z,14.40
2022-10-22T17:06:00.630Z,23.80
2022-10-22T17:08:27.686Z,30.02
2022-10-22T17:10:56.022Z,36.88
2022-10-22T17:13:23.147Z,104.90
2022-10-22T17:15:50.345Z,70.80
2022-10-22T17:18:17.519Z,25.73
2022-10-22T17:20:44.561Z,24.63
2022-10-22T17:23:11.543Z,25.30
2022-10-22T17:25:43.734Z,21.65
2022-10-22T17:28:12.287Z,28.90
2022-10-22T17:30:40.795Z,38.67
2022-10-22T17:33:08.828Z,57.13
2022-10-22T17:35:40.300Z,59.70
2022-10-22T17:38:07.547Z,61.65
2022-10-22T17:40:35.510Z,62.28
2022-10-22T17:43:02.749Z,47.00
2022-10-22T17:45:31.104Z,49.80
2022-10-22T17:47:58.206Z,44.33
2022-10-22T17:50:25.189Z,55.35
2022-10-22T17:52:52.135Z,48.00
2022-10-22T17:55:19.146Z,31.98
2022-10-22T17:57:46.165Z,31.77
2022-10-22T18:00:16.180Z,26.15
2022-10-22T18:02:44.758Z,32.67
2022-10-22T18:05:12.340Z,31.90
2022-10-22T18:07:39.318Z,21.30
2022-10-22T18:10:07.743Z,23.27
2022-10-22T18:12:35.262Z,19.20
2022-10-22T18:15:02.212Z,26.67
2022-10-22T18:17:31.805Z,22.27
2022-10-22T18:20:02.492Z,64.45
2022-10-22T18:22:29.572Z,56.35
2022-10-22T18:24:56.650Z,33.00
2022-10-22T18:27:23.674Z,23.92
2022-10-22T18:29:50.712Z,25.08
2022-10-22T18:32:17.691Z,19.85
2022-10-22T18:34:44.643Z,25.70
2022-10-22T18:37:13.037Z,23.52
2022-10-22T18:39:40.182Z,22.77
2022-10-22T18:42:07.389Z,22.20
2022-10-22T18:44:35.359Z,20.55
2022-10-22T18:47:02.381Z,23.30
2022-10-22T18:49:29.526Z,26.70
2022-10-22T18:51:56.479Z,26.00
2022-10-22T18:54:25.005Z,25.67
2022-10-22T18:56:52.774Z,19.33
2022-10-22T18:59:21.420Z,31.50
2022-10-22T19:01:48.991Z,21.02
2022-10-22T19:04:16.543Z,23.95
2022-10-22T19:06:45.786Z,21.55
2022-10-22T19:09:13.870Z,19.00
2022-10-22T19:11:42.926Z,17.45
2022-10-22T19:14:09.933Z,22.98
2022-10-22T19:16:37.700Z,22.20
2022-10-22T19:19:06.807Z,21.55
2022-10-22T19:21:34.048Z,18.55
2022-10-22T19:24:01.371Z,27.52
2022-10-22T19:26:29.905Z,23.98
2022-10-22T19:28:59.621Z,28.42
2022-10-22T19:31:29.828Z,24.48
2022-10-22T19:33:57.936Z,21.20
2022-10-22T19:36:25.440Z,25.52
2022-10-22T19:38:52.432Z,29.60
2022-10-22T19:41:21.126Z,23.65
2022-10-22T19:43:49.786Z,26.13
2022-10-22T19:46:18.534Z,22.80
2022-10-22T19:51:19.467Z,26.83
2022-10-22T19:53:47.259Z,24.85
2022-10-22T19:56:18.211Z,24.17
2022-10-22T19:58:45.275Z,24.15
2022-10-22T20:01:14.681Z,20.63
2022-10-22T20:03:43.812Z,26.85
2022-10-22T20:06:13.066Z,24.15
2022-10-22T20:08:40.613Z,21.10
2022-10-22T20:11:10.710Z,27.40
2022-10-22T20:16:05.516Z,24.45
2022-10-22T20:18:34.143Z,28.13
2022-10-22T20:21:05.183Z,30.20
2022-10-22T20:23:32.302Z,21.65
2022-10-22T20:25:59.409Z,31.52
2022-10-22T20:28:26.508Z,19.50
2022-10-22T20:30:53.559Z,16.70
2022-10-22T20:33:20.563Z,21.40
2022-10-22T20:35:57.954Z,20.17
2022-10-22T20:38:26.507Z,17.30
2022-10-22T20:41:00.267Z,18.13
2022-10-22T20:43:27.303Z,18.17
2022-10-22T20:45:54.341Z,14.65
2022-10-22T20:48:21.774Z,16.00
2022-10-22T20:50:48.725Z,21.10
2022-10-22T20:53:16.908Z,19.05
2022-10-22T20:55:45.477Z,17.05
2022-10-22T20:58:12.413Z,22.73
2022-10-22T21:00:39.808Z,17.45
2022-10-22T21:03:06.995Z,19.52
2022-10-22T21:05:34.769Z,23.20
2022-10-22T21:08:05.248Z,19.17
2022-10-22T21:10:32.694Z,21.83
2022-10-22T21:13:01.279Z,18.48
2022-10-22T21:15:28.349Z,18.15
2022-10-22T21:17:55.398Z,20.80
2022-10-22T21:20:24.747Z,19.10
2022-10-22T21:22:51.960Z,27.20
2022-10-22T21:25:18.907Z,25.65
2022-10-22T21:27:45.828Z,21.95
2022-10-22T21:30:14.414Z,26.30
2022-10-22T21:32:41.688Z,24.05
2022-10-22T21:35:08.934Z,22.50
2022-10-22T21:37:35.939Z,28.80
2022-10-22T21:40:04.389Z,25.27
2022-10-22T21:42:31.409Z,27.67
2022-10-22T21:44:58.407Z,26.17
2022-10-22T21:47:26.872Z,25.55
2022-10-22T21:49:53.934Z,19.42
2022-10-22T21:52:20.933Z,22.48
2022-10-22T21:54:48.012Z,22.55
2022-10-22T21:57:14.975Z,25.42
2022-10-22T21:59:42.046Z,29.60
2022-10-22T22:02:09.168Z,20.90
2022-10-22T22:04:37.767Z,22.15
2022-10-22T22:07:04.727Z,21.77
2022-10-22T22:09:32.003Z,21.63
2022-10-22T22:11:58.994Z,22.13
2022-10-22T22:14:26.074Z,24.15
2022-10-22T22:16:53.010Z,24.85
2022-10-22T22:19:19.948Z,24.33
2022-10-22T22:21:48.248Z,24.70
2022-10-22T22:24:15.219Z,21.23
2022-10-22T22:26:42.175Z,15.57
2022-10-22T22:29:10.718Z,15.82
2022-10-22T22:31:37.680Z,22.08
2022-10-22T22:34:07.874Z,23.33
2022-10-22T22:36:37.190Z,37.38
2022-10-22T22:39:07.318Z,15.73
2022-10-22T22:41:34.686Z,30.77
2022-10-22T22:44:01.942Z,19.05
2022-10-22T22:46:29.426Z,18.23
2022-10-22T22:48:56.381Z,25.83
2022-10-22T22:51:23.398Z,23.48
2022-10-22T22:53:50.489Z,16.40
2022-10-22T22:56:21.178Z,19.40
2022-10-22T22:58:48.591Z,23.40
2022-10-22T23:01:17.735Z,16.45
2022-10-22T23:03:46.059Z,21.05
2022-10-22T23:06:13.458Z,21.77
2022-10-22T23:08:41.283Z,21.25
2022-10-22T23:11:11.230Z,16.67
2022-10-22T23:13:40.829Z,24.10
2022-10-22T23:16:09.246Z,18.02
2022-10-22T23:18:36.511Z,18.75
2022-10-22T23:21:05.319Z,18.15
2022-10-22T23:23:32.699Z,15.75
2022-10-22T23:25:59.773Z,14.85
2022-10-22T23:28:27.094Z,19.70
2022-10-22T23:30:55.454Z,14.27
2022-10-22T23:33:22.482Z,21.60
2022-10-22T23:35:49.442Z,15.20
2022-10-22T23:38:16.471Z,13.68
2022-10-22T23:40:43.386Z,17.05
2022-10-22T23:43:10.356Z,17.00
2022-10-22T23:45:37.426Z,14.60
2022-10-22T23:48:06.176Z,14.88
2022-10-22T23:50:35.853Z,17.77
2022-10-22T23:53:02.845Z,17.55
2022-10-22T23:55:29.843Z,18.08
2022-10-22T23:57:56.838Z,18.38
